Terminal Aerodrome Forecast
Issued by NWS Shreveport, LA

Home | Current Version | Previous Version | Text Only | Print | Product List | Glossary On
Versions: 1 2 3 4 5 6 7 8 9 10 11 12 13 14 15 16 17 18
000
FTUS44 KSHV 171723
TAFELD
TAF
KELD 171723Z 1718/1818 00000KT P6SM VCSH OVC060
      TEMPO 1718/1722 3SM -RA BR
     FM180000 03003KT P6SM VCSH OVC040
     FM180900 04006KT 6SM -SHRA BR OVC020
     FM181100 05005KT 4SM -SHRA BR OVC007=

USA.gov is the U.S. government's official web portal to all federal, state and local government web resources and services.